Hodge, California
Current Conditions -  °F | °C
As of 4:50 PM on Tuesday 21 Oct 2014 (Local Time) from KDAG Reporting Station
Clear Clear  
Wind Chill: 83°   Ceiling: Unl
Heat Index: 83°   Visibility: 10mi
Dew Point: 27°   Wind: 12mph
Humidity: 13%   Direction: 290°WNW
Pressure: 29.83"   Gusts: NA
Location:  35.1476°N, 117.206°W
Report Text: KDAG 212350Z AUTO 29010KT 10SM CLR 28/M03 A2983 RMK AO2 SLP079 T02831028 10289 20222 56013
Loading
Personal Weather Stations






























Interactive Weather Map New forecast layout! Learn more

10-Day Weather Forecast

Advertisements
Track Severe Weather on mobile